sensor_id;sensor_type;location;lat;lon;timestamp;temperature;humidity
58983;DHT22;44771;49.982;8.560;2023-07-31T00:02:19;17.00;99.90
58983;DHT22;44771;49.982;8.560;2023-07-31T00:07:21;17.00;99.90
58983;DHT22;44771;49.982;8.560;2023-07-31T00:12:24;17.00;99.90
58983;DHT22;44771;49.982;8.560;2023-07-31T00:17:26;17.00;99.90
58983;DHT22;44771;49.982;8.560;2023-07-31T00:22:27;17.00;99.90
58983;DHT22;44771;49.982;8.560;2023-07-31T00:27:30;17.10;99.90
58983;DHT22;44771;49.982;8.560;2023-07-31T00:32:32;17.10;99.90
58983;DHT22;44771;49.982;8.560;2023-07-31T00:37:34;17.10;99.90
58983;DHT22;44771;49.982;8.560;2023-07-31T00:42:37;17.10;99.90
58983;DHT22;44771;49.982;8.560;2023-07-31T00:47:38;17.20;99.90
58983;DHT22;44771;49.982;8.560;2023-07-31T00:52:40;17.20;99.90
58983;DHT22;44771;49.982;8.560;2023-07-31T00:57:43;17.20;99.90
58983;DHT22;44771;49.982;8.560;2023-07-31T01:02:46;17.20;99.90
58983;DHT22;44771;49.982;8.560;2023-07-31T01:07:49;17.20;99.80
58983;DHT22;44771;49.982;8.560;2023-07-31T01:12:53;17.30;99.10
58983;DHT22;44771;49.982;8.560;2023-07-31T01:17:57;17.40;98.80
58983;DHT22;44771;49.982;8.560;2023-07-31T01:28:20;17.40;98.20
58983;DHT22;44771;49.982;8.560;2023-07-31T01:33:26;17.50;98.20
58983;DHT22;44771;49.982;8.560;2023-07-31T01:38:28;17.50;97.80
58983;DHT22;44771;49.982;8.560;2023-07-31T01:43:31;17.60;97.50
58983;DHT22;44771;49.982;8.560;2023-07-31T01:48:32;17.60;97.60
58983;DHT22;44771;49.982;8.560;2023-07-31T01:53:34;17.70;97.10
58983;DHT22;44771;49.982;8.560;2023-07-31T01:58:37;17.70;97.00
58983;DHT22;44771;49.982;8.560;2023-07-31T02:03:38;17.70;97.10
58983;DHT22;44771;49.982;8.560;2023-07-31T02:08:40;17.70;96.90
58983;DHT22;44771;49.982;8.560;2023-07-31T02:13:43;17.70;96.70
58983;DHT22;44771;49.982;8.560;2023-07-31T02:18:45;17.80;96.80
58983;DHT22;44771;49.982;8.560;2023-07-31T02:23:47;17.70;96.80
58983;DHT22;44771;49.982;8.560;2023-07-31T02:28:49;17.70;97.10
58983;DHT22;44771;49.982;8.560;2023-07-31T02:33:51;17.60;97.00
58983;DHT22;44771;49.982;8.560;2023-07-31T02:38:53;17.60;97.00
58983;DHT22;44771;49.982;8.560;2023-07-31T02:43:56;17.70;97.00
58983;DHT22;44771;49.982;8.560;2023-07-31T02:48:57;17.70;97.20
58983;DHT22;44771;49.982;8.560;2023-07-31T02:53:59;17.60;97.30
58983;DHT22;44771;49.982;8.560;2023-07-31T02:59:02;17.60;97.40
58983;DHT22;44771;49.982;8.560;2023-07-31T03:04:03;17.60;97.40
58983;DHT22;44771;49.982;8.560;2023-07-31T03:09:05;17.60;97.40
58983;DHT22;44771;49.982;8.560;2023-07-31T03:14:08;17.50;97.70
58983;DHT22;44771;49.982;8.560;2023-07-31T03:19:10;17.40;98.00
58983;DHT22;44771;49.982;8.560;2023-07-31T03:24:11;17.40;98.00
58983;DHT22;44771;49.982;8.560;2023-07-31T03:29:14;17.40;98.00
58983;DHT22;44771;49.982;8.560;2023-07-31T03:34:16;17.30;98.40
58983;DHT22;44771;49.982;8.560;2023-07-31T03:39:18;17.30;98.60
58983;DHT22;44771;49.982;8.560;2023-07-31T03:44:21;17.20;98.90
58983;DHT22;44771;49.982;8.560;2023-07-31T03:49:23;17.20;99.50
58983;DHT22;44771;49.982;8.560;2023-07-31T03:54:24;17.10;99.50
58983;DHT22;44771;49.982;8.560;2023-07-31T03:59:27;17.10;99.50
58983;DHT22;44771;49.982;8.560;2023-07-31T04:04:29;17.00;99.30
58983;DHT22;44771;49.982;8.560;2023-07-31T04:09:30;17.00;99.60
58983;DHT22;44771;49.982;8.560;2023-07-31T04:14:33;17.00;99.50
58983;DHT22;44771;49.982;8.560;2023-07-31T04:19:35;17.00;99.80
58983;DHT22;44771;49.982;8.560;2023-07-31T04:24:40;17.00;99.90
58983;DHT22;44771;49.982;8.560;2023-07-31T04:29:43;16.90;99.90
58983;DHT22;44771;49.982;8.560;2023-07-31T04:34:44;16.90;99.90
58983;DHT22;44771;49.982;8.560;2023-07-31T04:39:46;16.90;99.90
58983;DHT22;44771;49.982;8.560;2023-07-31T04:44:49;16.90;99.90
58983;DHT22;44771;49.982;8.560;2023-07-31T04:49:50;16.90;99.90
58983;DHT22;44771;49.982;8.560;2023-07-31T04:54:52;16.90;99.90
58983;DHT22;44771;49.982;8.560;2023-07-31T04:59:55;17.00;99.90
58983;DHT22;44771;49.982;8.560;2023-07-31T05:04:57;16.90;99.90
58983;DHT22;44771;49.982;8.560;2023-07-31T05:09:58;17.10;99.90
58983;DHT22;44771;49.982;8.560;2023-07-31T05:15:02;17.00;99.90
58983;DHT22;44771;49.982;8.560;2023-07-31T05:20:04;17.10;99.90
58983;DHT22;44771;49.982;8.560;2023-07-31T05:25:06;17.10;99.90
58983;DHT22;44771;49.982;8.560;2023-07-31T05:30:16;17.10;99.90
58983;DHT22;44771;49.982;8.560;2023-07-31T05:35:18;17.10;99.90
58983;DHT22;44771;49.982;8.560;2023-07-31T05:40:21;17.10;99.90
58983;DHT22;44771;49.982;8.560;2023-07-31T05:45:25;17.10;99.90
58983;DHT22;44771;49.982;8.560;2023-07-31T05:50:26;17.00;99.90
58983;DHT22;44771;49.982;8.560;2023-07-31T05:55:28;17.00;99.90
58983;DHT22;44771;49.982;8.560;2023-07-31T06:00:31;17.10;99.90
58983;DHT22;44771;49.982;8.560;2023-07-31T06:05:33;17.10;99.90
58983;DHT22;44771;49.982;8.560;2023-07-31T06:10:34;17.20;99.90
58983;DHT22;44771;49.982;8.560;2023-07-31T06:15:37;17.40;99.30
58983;DHT22;44771;49.982;8.560;2023-07-31T06:20:39;17.50;99.70
58983;DHT22;44771;49.982;8.560;2023-07-31T06:25:41;17.60;98.90
58983;DHT22;44771;49.982;8.560;2023-07-31T06:30:44;17.70;99.40
58983;DHT22;44771;49.982;8.560;2023-07-31T06:35:45;17.80;99.10
58983;DHT22;44771;49.982;8.560;2023-07-31T06:40:47;17.90;98.60
58983;DHT22;44771;49.982;8.560;2023-07-31T06:45:50;17.90;98.30
58983;DHT22;44771;49.982;8.560;2023-07-31T06:50:52;18.00;98.30
58983;DHT22;44771;49.982;8.560;2023-07-31T06:55:53;17.90;98.40
58983;DHT22;44771;49.982;8.560;2023-07-31T07:00:56;18.10;98.30
58983;DHT22;44771;49.982;8.560;2023-07-31T07:05:58;18.20;99.00
58983;DHT22;44771;49.982;8.560;2023-07-31T07:11:00;18.30;98.30
58983;DHT22;44771;49.982;8.560;2023-07-31T07:16:03;18.40;98.50
58983;DHT22;44771;49.982;8.560;2023-07-31T07:21:04;18.60;98.40
58983;DHT22;44771;49.982;8.560;2023-07-31T07:26:06;18.90;98.20
58983;DHT22;44771;49.982;8.560;2023-07-31T07:31:09;19.00;97.80
58983;DHT22;44771;49.982;8.560;2023-07-31T07:36:10;19.30;98.00
58983;DHT22;44771;49.982;8.560;2023-07-31T07:41:12;19.60;96.60
58983;DHT22;44771;49.982;8.560;2023-07-31T07:46:15;19.80;97.40
58983;DHT22;44771;49.982;8.560;2023-07-31T07:51:17;19.70;96.70
58983;DHT22;44771;49.982;8.560;2023-07-31T07:56:18;19.80;96.30
58983;DHT22;44771;49.982;8.560;2023-07-31T08:01:21;19.60;96.50
58983;DHT22;44771;49.982;8.560;2023-07-31T08:06:23;19.80;97.00
58983;DHT22;44771;49.982;8.560;2023-07-31T08:11:24;19.90;96.40
58983;DHT22;44771;49.982;8.560;2023-07-31T08:16:27;20.00;96.30
58983;DHT22;44771;49.982;8.560;2023-07-31T08:21:29;20.00;96.40
58983;DHT22;44771;49.982;8.560;2023-07-31T08:26:31;19.90;97.10
58983;DHT22;44771;49.982;8.560;2023-07-31T08:31:34;19.80;96.50
58983;DHT22;44771;49.982;8.560;2023-07-31T08:36:35;19.80;96.90
58983;DHT22;44771;49.982;8.560;2023-07-31T08:41:37;20.00;96.80
58983;DHT22;44771;49.982;8.560;2023-07-31T08:46:40;20.50;96.40
58983;DHT22;44771;49.982;8.560;2023-07-31T08:51:43;20.80;95.30
58983;DHT22;44771;49.982;8.560;2023-07-31T08:56:47;20.80;95.30
58983;DHT22;44771;49.982;8.560;2023-07-31T09:01:52;21.10;95.50
58983;DHT22;44771;49.982;8.560;2023-07-31T09:06:57;21.20;94.70
58983;DHT22;44771;49.982;8.560;2023-07-31T09:12:01;21.20;95.00
58983;DHT22;44771;49.982;8.560;2023-07-31T09:17:04;21.00;97.40
58983;DHT22;44771;49.982;8.560;2023-07-31T09:22:06;20.30;99.90
58983;DHT22;44771;49.982;8.560;2023-07-31T09:27:08;20.00;99.90
58983;DHT22;44771;49.982;8.560;2023-07-31T09:32:16;20.00;99.90
58983;DHT22;44771;49.982;8.560;2023-07-31T09:37:18;20.50;99.90
58983;DHT22;44771;49.982;8.560;2023-07-31T09:42:24;21.20;97.70
58983;DHT22;44771;49.982;8.560;2023-07-31T09:47:27;21.70;95.70
58983;DHT22;44771;49.982;8.560;2023-07-31T09:52:29;21.40;95.50
58983;DHT22;44771;49.982;8.560;2023-07-31T09:57:30;21.00;94.60
58983;DHT22;44771;49.982;8.560;2023-07-31T10:02:34;20.90;94.20
58983;DHT22;44771;49.982;8.560;2023-07-31T10:07:37;20.80;94.10
58983;DHT22;44771;49.982;8.560;2023-07-31T10:12:39;20.90;94.50
58983;DHT22;44771;49.982;8.560;2023-07-31T10:17:42;20.90;93.60
58983;DHT22;44771;49.982;8.560;2023-07-31T10:22:44;21.00;93.40
58983;DHT22;44771;49.982;8.560;2023-07-31T10:27:46;21.20;93.20
58983;DHT22;44771;49.982;8.560;2023-07-31T10:32:50;21.40;92.90
58983;DHT22;44771;49.982;8.560;2023-07-31T10:37:52;21.50;93.10
58983;DHT22;44771;49.982;8.560;2023-07-31T10:42:54;21.90;92.60
58983;DHT22;44771;49.982;8.560;2023-07-31T10:48:01;22.30;92.40
58983;DHT22;44771;49.982;8.560;2023-07-31T10:53:03;22.50;90.20
58983;DHT22;44771;49.982;8.560;2023-07-31T10:58:06;22.50;91.30
58983;DHT22;44771;49.982;8.560;2023-07-31T11:03:10;22.20;90.30
58983;DHT22;44771;49.982;8.560;2023-07-31T11:08:16;21.90;91.40
58983;DHT22;44771;49.982;8.560;2023-07-31T11:13:18;21.90;90.60
58983;DHT22;44771;49.982;8.560;2023-07-31T11:18:21;21.70;90.90
58983;DHT22;44771;49.982;8.560;2023-07-31T11:23:23;21.80;91.00
58983;DHT22;44771;49.982;8.560;2023-07-31T11:28:24;21.90;91.30
58983;DHT22;44771;49.982;8.560;2023-07-31T11:33:28;22.40;91.50
58983;DHT22;44771;49.982;8.560;2023-07-31T11:38:30;22.90;89.90
58983;DHT22;44771;49.982;8.560;2023-07-31T11:43:32;22.60;90.20
58983;DHT22;44771;49.982;8.560;2023-07-31T11:48:36;22.60;90.60
58983;DHT22;44771;49.982;8.560;2023-07-31T11:53:40;22.20;90.70
58983;DHT22;44771;49.982;8.560;2023-07-31T11:58:42;21.90;91.00
58983;DHT22;44771;49.982;8.560;2023-07-31T12:03:45;21.90;91.80
58983;DHT22;44771;49.982;8.560;2023-07-31T12:08:48;21.90;91.00
58983;DHT22;44771;49.982;8.560;2023-07-31T12:13:49;22.00;91.00
58983;DHT22;44771;49.982;8.560;2023-07-31T12:18:52;21.90;90.50
58983;DHT22;44771;49.982;8.560;2023-07-31T12:23:54;21.80;90.80
58983;DHT22;44771;49.982;8.560;2023-07-31T12:28:56;21.50;91.60
58983;DHT22;44771;49.982;8.560;2023-07-31T12:34:00;21.40;92.20
58983;DHT22;44771;49.982;8.560;2023-07-31T12:39:01;21.20;93.20
58983;DHT22;44771;49.982;8.560;2023-07-31T12:44:03;21.10;93.20
58983;DHT22;44771;49.982;8.560;2023-07-31T12:49:06;21.10;93.20
58983;DHT22;44771;49.982;8.560;2023-07-31T12:54:08;21.30;93.10
58983;DHT22;44771;49.982;8.560;2023-07-31T12:59:09;21.60;93.00
58983;DHT22;44771;49.982;8.560;2023-07-31T13:04:12;21.90;92.70
58983;DHT22;44771;49.982;8.560;2023-07-31T13:09:14;21.90;91.60
58983;DHT22;44771;49.982;8.560;2023-07-31T13:14:15;22.10;91.50
58983;DHT22;44771;49.982;8.560;2023-07-31T13:19:18;22.20;90.70
58983;DHT22;44771;49.982;8.560;2023-07-31T13:24:20;22.20;91.00
58983;DHT22;44771;49.982;8.560;2023-07-31T13:29:22;22.20;90.80
58983;DHT22;44771;49.982;8.560;2023-07-31T13:34:25;22.10;90.70
58983;DHT22;44771;49.982;8.560;2023-07-31T13:39:26;22.10;91.30
58983;DHT22;44771;49.982;8.560;2023-07-31T13:44:28;22.00;91.40
58983;DHT22;44771;49.982;8.560;2023-07-31T13:49:31;22.00;90.90
58983;DHT22;44771;49.982;8.560;2023-07-31T13:54:33;21.80;91.20
58983;DHT22;44771;49.982;8.560;2023-07-31T13:59:35;21.60;91.60
58983;DHT22;44771;49.982;8.560;2023-07-31T14:04:38;21.70;91.80
58983;DHT22;44771;49.982;8.560;2023-07-31T14:09:40;21.80;91.10
58983;DHT22;44771;49.982;8.560;2023-07-31T14:14:41;21.70;91.20
58983;DHT22;44771;49.982;8.560;2023-07-31T14:19:44;21.60;92.10
58983;DHT22;44771;49.982;8.560;2023-07-31T14:24:46;21.50;91.90
58983;DHT22;44771;49.982;8.560;2023-07-31T14:29:48;21.40;92.30
58983;DHT22;44771;49.982;8.560;2023-07-31T14:40:17;21.30;92.80
58983;DHT22;44771;49.982;8.560;2023-07-31T14:45:19;21.30;92.10
58983;DHT22;44771;49.982;8.560;2023-07-31T14:50:20;21.40;92.30
58983;DHT22;44771;49.982;8.560;2023-07-31T14:55:23;21.40;92.40
58983;DHT22;44771;49.982;8.560;2023-07-31T15:00:25;21.30;92.80
58983;DHT22;44771;49.982;8.560;2023-07-31T15:05:27;21.40;92.50
58983;DHT22;44771;49.982;8.560;2023-07-31T15:10:30;21.30;92.60
58983;DHT22;44771;49.982;8.560;2023-07-31T15:15:31;21.30;92.30
58983;DHT22;44771;49.982;8.560;2023-07-31T15:20:33;21.10;93.00
58983;DHT22;44771;49.982;8.560;2023-07-31T15:25:36;21.10;92.90
58983;DHT22;44771;49.982;8.560;2023-07-31T15:30:38;21.10;92.60
58983;DHT22;44771;49.982;8.560;2023-07-31T15:35:39;21.00;91.20
58983;DHT22;44771;49.982;8.560;2023-07-31T15:40:42;21.10;90.80
58983;DHT22;44771;49.982;8.560;2023-07-31T15:45:44;21.00;90.40
58983;DHT22;44771;49.982;8.560;2023-07-31T15:50:46;20.90;90.90
58983;DHT22;44771;49.982;8.560;2023-07-31T15:55:49;20.80;91.10
58983;DHT22;44771;49.982;8.560;2023-07-31T16:00:50;20.80;90.50
58983;DHT22;44771;49.982;8.560;2023-07-31T16:05:52;20.80;91.10
58983;DHT22;44771;49.982;8.560;2023-07-31T16:10:55;20.80;90.80
58983;DHT22;44771;49.982;8.560;2023-07-31T16:15:56;20.70;90.90
58983;DHT22;44771;49.982;8.560;2023-07-31T16:20:58;20.80;91.20
58983;DHT22;44771;49.982;8.560;2023-07-31T16:26:01;20.80;91.40
58983;DHT22;44771;49.982;8.560;2023-07-31T16:31:03;20.70;91.80
58983;DHT22;44771;49.982;8.560;2023-07-31T16:36:04;20.70;92.30
58983;DHT22;44771;49.982;8.560;2023-07-31T16:41:07;20.60;93.50
58983;DHT22;44771;49.982;8.560;2023-07-31T16:46:09;20.40;95.40
58983;DHT22;44771;49.982;8.560;2023-07-31T16:51:11;20.10;96.50
58983;DHT22;44771;49.982;8.560;2023-07-31T16:56:14;19.80;97.10
58983;DHT22;44771;49.982;8.560;2023-07-31T17:01:15;19.60;98.00
58983;DHT22;44771;49.982;8.560;2023-07-31T17:06:17;19.50;99.00
58983;DHT22;44771;49.982;8.560;2023-07-31T17:11:20;19.30;99.90
58983;DHT22;44771;49.982;8.560;2023-07-31T17:16:22;19.00;99.90
58983;DHT22;44771;49.982;8.560;2023-07-31T17:21:23;18.70;99.90
58983;DHT22;44771;49.982;8.560;2023-07-31T17:26:26;18.50;99.90
58983;DHT22;44771;49.982;8.560;2023-07-31T17:31:28;18.30;99.90
58983;DHT22;44771;49.982;8.560;2023-07-31T17:36:30;18.10;99.90
58983;DHT22;44771;49.982;8.560;2023-07-31T17:41:33;18.00;99.90
58983;DHT22;44771;49.982;8.560;2023-07-31T17:46:35;17.90;99.90
58983;DHT22;44771;49.982;8.560;2023-07-31T17:51:37;17.80;99.90
58983;DHT22;44771;49.982;8.560;2023-07-31T17:56:40;17.70;99.90
58983;DHT22;44771;49.982;8.560;2023-07-31T18:01:42;17.70;99.90
58983;DHT22;44771;49.982;8.560;2023-07-31T18:06:43;17.70;99.90
58983;DHT22;44771;49.982;8.560;2023-07-31T18:11:46;17.70;99.90
58983;DHT22;44771;49.982;8.560;2023-07-31T18:16:48;17.70;99.90
58983;DHT22;44771;49.982;8.560;2023-07-31T18:21:49;17.70;99.90
58983;DHT22;44771;49.982;8.560;2023-07-31T18:26:52;17.70;99.90
58983;DHT22;44771;49.982;8.560;2023-07-31T18:31:54;17.70;99.90
58983;DHT22;44771;49.982;8.560;2023-07-31T18:36:56;17.70;99.90
58983;DHT22;44771;49.982;8.560;2023-07-31T18:41:59;17.70;99.90
58983;DHT22;44771;49.982;8.560;2023-07-31T18:47:00;17.70;99.90
58983;DHT22;44771;49.982;8.560;2023-07-31T18:52:02;17.80;99.90
58983;DHT22;44771;49.982;8.560;2023-07-31T18:57:06;17.80;99.90
58983;DHT22;44771;49.982;8.560;2023-07-31T19:02:08;17.80;99.90
58983;DHT22;44771;49.982;8.560;2023-07-31T19:07:09;17.90;99.90
58983;DHT22;44771;49.982;8.560;2023-07-31T19:12:12;17.90;99.90
58983;DHT22;44771;49.982;8.560;2023-07-31T19:17:14;18.00;99.90
58983;DHT22;44771;49.982;8.560;2023-07-31T19:22:15;18.00;99.90
58983;DHT22;44771;49.982;8.560;2023-07-31T19:27:18;18.00;99.90
58983;DHT22;44771;49.982;8.560;2023-07-31T19:32:20;18.10;99.90
58983;DHT22;44771;49.982;8.560;2023-07-31T19:37:22;18.10;99.90
58983;DHT22;44771;49.982;8.560;2023-07-31T19:42:25;18.20;99.90
58983;DHT22;44771;49.982;8.560;2023-07-31T19:47:26;18.10;99.90
58983;DHT22;44771;49.982;8.560;2023-07-31T19:52:28;18.10;99.90
58983;DHT22;44771;49.982;8.560;2023-07-31T19:57:31;18.10;99.90
58983;DHT22;44771;49.982;8.560;2023-07-31T20:02:33;18.10;99.90
58983;DHT22;44771;49.982;8.560;2023-07-31T20:07:34;18.10;99.90
58983;DHT22;44771;49.982;8.560;2023-07-31T20:12:37;18.00;99.90
58983;DHT22;44771;49.982;8.560;2023-07-31T20:17:39;18.00;99.90
58983;DHT22;44771;49.982;8.560;2023-07-31T20:22:41;18.00;99.90
58983;DHT22;44771;49.982;8.560;2023-07-31T20:27:44;18.00;99.90
58983;DHT22;44771;49.982;8.560;2023-07-31T20:32:45;18.00;99.90
58983;DHT22;44771;49.982;8.560;2023-07-31T20:37:47;17.80;99.90
58983;DHT22;44771;49.982;8.560;2023-07-31T20:42:55;17.80;99.90
58983;DHT22;44771;49.982;8.560;2023-07-31T20:47:57;17.60;99.90
58983;DHT22;44771;49.982;8.560;2023-07-31T20:52:58;17.50;99.90
58983;DHT22;44771;49.982;8.560;2023-07-31T20:58:01;17.30;99.90
58983;DHT22;44771;49.982;8.560;2023-07-31T21:03:03;17.20;99.90
58983;DHT22;44771;49.982;8.560;2023-07-31T21:08:05;17.10;99.90
58983;DHT22;44771;49.982;8.560;2023-07-31T21:13:08;17.00;99.90
58983;DHT22;44771;49.982;8.560;2023-07-31T21:18:09;16.80;99.90
58983;DHT22;44771;49.982;8.560;2023-07-31T21:23:12;16.70;99.90
58983;DHT22;44771;49.982;8.560;2023-07-31T21:28:15;16.50;99.90
58983;DHT22;44771;49.982;8.560;2023-07-31T21:33:16;16.40;99.90
58983;DHT22;44771;49.982;8.560;2023-07-31T21:38:18;16.30;99.90
58983;DHT22;44771;49.982;8.560;2023-07-31T21:43:21;16.20;99.90
58983;DHT22;44771;49.982;8.560;2023-07-31T21:48:23;16.20;99.90
58983;DHT22;44771;49.982;8.560;2023-07-31T21:53:24;16.10;99.90
58983;DHT22;44771;49.982;8.560;2023-07-31T21:58:27;16.10;99.90
58983;DHT22;44771;49.982;8.560;2023-07-31T22:03:29;16.10;99.90
58983;DHT22;44771;49.982;8.560;2023-07-31T22:08:31;16.10;99.90
58983;DHT22;44771;49.982;8.560;2023-07-31T22:13:34;16.00;99.90
58983;DHT22;44771;49.982;8.560;2023-07-31T22:18:38;16.10;99.90
58983;DHT22;44771;49.982;8.560;2023-07-31T22:23:40;16.00;99.90
58983;DHT22;44771;49.982;8.560;2023-07-31T22:28:43;16.00;99.90
58983;DHT22;44771;49.982;8.560;2023-07-31T22:33:45;16.00;99.90
58983;DHT22;44771;49.982;8.560;2023-07-31T22:38:46;16.00;99.90
58983;DHT22;44771;49.982;8.560;2023-07-31T22:43:49;16.00;99.90
58983;DHT22;44771;49.982;8.560;2023-07-31T22:48:51;16.00;99.90
58983;DHT22;44771;49.982;8.560;2023-07-31T22:53:54;16.00;99.90
58983;DHT22;44771;49.982;8.560;2023-07-31T22:59:00;16.10;99.90
58983;DHT22;44771;49.982;8.560;2023-07-31T23:04:01;16.00;99.90
58983;DHT22;44771;49.982;8.560;2023-07-31T23:09:03;16.00;99.90
58983;DHT22;44771;49.982;8.560;2023-07-31T23:14:06;16.00;99.90
58983;DHT22;44771;49.982;8.560;2023-07-31T23:19:08;16.00;99.90
58983;DHT22;44771;49.982;8.560;2023-07-31T23:24:09;16.00;99.90
58983;DHT22;44771;49.982;8.560;2023-07-31T23:29:12;16.00;99.90
58983;DHT22;44771;49.982;8.560;2023-07-31T23:34:14;16.00;99.90
58983;DHT22;44771;49.982;8.560;2023-07-31T23:39:16;16.10;99.90
58983;DHT22;44771;49.982;8.560;2023-07-31T23:44:19;16.00;99.90
58983;DHT22;44771;49.982;8.560;2023-07-31T23:49:21;16.00;99.90
58983;DHT22;44771;49.982;8.560;2023-07-31T23:54:22;16.00;99.90
58983;DHT22;44771;49.982;8.560;2023-07-31T23:59:25;16.00;99.90
